createdAt,value
2023-05-08T00:01:37.443Z,12.00
2023-05-08T00:04:10.460Z,11.30
2023-05-08T00:06:44.943Z,11.60
2023-05-08T00:09:17.875Z,12.10
2023-05-08T00:11:50.740Z,13.18
2023-05-08T00:14:23.684Z,11.13
2023-05-08T00:16:56.485Z,12.75
2023-05-08T00:19:29.349Z,12.25
2023-05-08T00:22:03.920Z,11.77
2023-05-08T00:24:36.702Z,12.23
2023-05-08T00:27:09.514Z,12.10
2023-05-08T00:29:42.975Z,11.60
2023-05-08T00:32:16.217Z,11.82
2023-05-08T00:34:49.133Z,10.52
2023-05-08T00:37:23.489Z,10.70
2023-05-08T00:39:57.032Z,11.30
2023-05-08T00:42:29.851Z,10.88
2023-05-08T00:45:03.336Z,11.90
2023-05-08T00:47:37.109Z,10.53
2023-05-08T00:50:11.502Z,9.98
2023-05-08T00:52:47.106Z,11.30
2023-05-08T00:55:20.581Z,10.18
2023-05-08T00:57:53.786Z,10.48
2023-05-08T01:00:27.290Z,10.27
2023-05-08T01:03:01.684Z,11.10
2023-05-08T01:05:34.893Z,9.98
2023-05-08T01:08:09.146Z,11.30
2023-05-08T01:10:48.609Z,10.40
2023-05-08T01:13:41.686Z,9.27
2023-05-08T01:16:18.003Z,8.93
2023-05-08T01:18:58.350Z,10.80
2023-05-08T01:21:38.038Z,10.70
2023-05-08T01:24:43.589Z,10.25
2023-05-08T01:30:21.253Z,8.77
2023-05-08T01:33:00.999Z,9.88
2023-05-08T01:35:46.514Z,11.25
2023-05-08T01:38:27.989Z,8.93
2023-05-08T01:41:08.185Z,10.60
2023-05-08T01:43:49.583Z,10.52
2023-05-08T01:46:28.002Z,8.75
2023-05-08T01:49:07.867Z,9.38
2023-05-08T01:51:44.820Z,8.88
2023-05-08T01:54:22.808Z,10.95
2023-05-08T01:56:59.473Z,11.18
2023-05-08T01:59:37.018Z,10.68
2023-05-08T02:02:11.153Z,9.27
2023-05-08T02:04:46.035Z,9.52
2023-05-08T02:09:55.598Z,11.30
2023-05-08T02:12:30.125Z,9.63
2023-05-08T02:15:04.338Z,9.50
2023-05-08T02:17:40.687Z,9.75
2023-05-08T02:20:16.743Z,11.48
2023-05-08T02:22:52.604Z,10.73
2023-05-08T02:25:27.218Z,10.55
2023-05-08T02:28:00.974Z,9.77
2023-05-08T02:30:35.351Z,9.88
2023-05-08T02:33:11.463Z,8.98
2023-05-08T02:35:49.265Z,9.90
2023-05-08T02:38:23.712Z,9.68
2023-05-08T02:41:01.926Z,8.63
2023-05-08T02:43:35.200Z,9.55
2023-05-08T02:46:13.675Z,9.75
2023-05-08T02:48:57.160Z,9.52
2023-05-08T02:51:40.785Z,9.18
2023-05-08T02:54:20.664Z,9.15
2023-05-08T02:57:00.881Z,10.48
2023-05-08T02:59:39.254Z,8.80
2023-05-08T03:02:18.333Z,10.30
2023-05-08T03:04:56.203Z,10.00
2023-05-08T03:07:32.174Z,10.23
2023-05-08T03:10:11.744Z,11.60
2023-05-08T03:12:48.994Z,9.25
2023-05-08T03:15:28.297Z,8.60
2023-05-08T03:18:08.465Z,10.82
2023-05-08T03:20:46.064Z,10.02
2023-05-08T03:23:22.682Z,9.60
2023-05-08T03:25:58.746Z,9.75
2023-05-08T03:28:32.661Z,8.82
2023-05-08T03:31:07.793Z,10.88
2023-05-08T03:33:43.437Z,10.07
2023-05-08T03:36:18.189Z,10.63
2023-05-08T03:38:52.408Z,8.23
2023-05-08T03:41:26.734Z,9.60
2023-05-08T03:43:59.974Z,10.48
2023-05-08T03:46:34.203Z,9.93
2023-05-08T03:49:09.778Z,10.88
2023-05-08T03:51:44.244Z,11.30
2023-05-08T03:54:18.551Z,10.85
2023-05-08T03:56:53.452Z,10.80
2023-05-08T03:59:45.359Z,17.70
2023-05-08T04:02:24.077Z,11.68
2023-05-08T04:05:06.844Z,10.40
2023-05-08T04:07:48.391Z,10.82
2023-05-08T04:10:28.068Z,9.90
2023-05-08T04:13:06.410Z,10.82
2023-05-08T04:15:53.246Z,10.32
2023-05-08T04:18:31.131Z,10.02
2023-05-08T04:21:11.971Z,11.07
2023-05-08T04:23:46.904Z,11.55
2023-05-08T04:26:22.333Z,11.05
2023-05-08T04:28:57.865Z,11.80
2023-05-08T04:31:31.996Z,10.80
2023-05-08T04:34:05.603Z,11.00
2023-05-08T04:36:38.675Z,11.05
2023-05-08T04:39:12.935Z,9.80
2023-05-08T04:41:48.720Z,12.20
2023-05-08T04:44:21.621Z,11.45
2023-05-08T04:46:54.623Z,11.50
2023-05-08T04:49:27.492Z,11.93
2023-05-08T04:52:01.196Z,11.85
2023-05-08T04:54:34.454Z,11.07
2023-05-08T04:57:08.764Z,11.82
2023-05-08T04:59:41.734Z,11.13
2023-05-08T05:02:15.562Z,11.95
2023-05-08T05:04:48.601Z,11.50
2023-05-08T05:07:21.918Z,11.73
2023-05-08T05:09:54.799Z,12.20
2023-05-08T05:12:29.056Z,14.57
2023-05-08T05:15:01.905Z,12.50
2023-05-08T05:17:38.794Z,12.48
2023-05-08T05:20:13.233Z,12.45
2023-05-08T05:22:46.084Z,13.38
2023-05-08T05:25:19.374Z,11.68
2023-05-08T05:27:54.067Z,13.00
2023-05-08T05:30:27.197Z,11.65
2023-05-08T05:33:00.501Z,14.23
2023-05-08T05:35:33.361Z,12.50
2023-05-08T05:38:07.273Z,11.95
2023-05-08T05:40:40.395Z,12.25
2023-05-08T05:43:14.898Z,11.18
2023-05-08T05:45:48.009Z,11.38
2023-05-08T05:51:18.263Z,12.07
2023-05-08T05:53:51.512Z,12.45
2023-05-08T05:56:24.473Z,11.85
2023-05-08T05:58:58.725Z,11.40
2023-05-08T06:01:32.379Z,12.10
2023-05-08T06:04:05.496Z,13.63
2023-05-08T06:06:39.336Z,13.18
2023-05-08T06:09:12.136Z,11.60
2023-05-08T06:11:44.934Z,12.20
2023-05-08T06:14:19.115Z,11.75
2023-05-08T06:16:52.037Z,12.15
2023-05-08T06:19:25.126Z,11.40
2023-05-08T06:21:57.917Z,12.88
2023-05-08T06:24:30.806Z,12.93
2023-05-08T06:27:03.666Z,10.65
2023-05-08T06:29:38.135Z,14.02
2023-05-08T06:32:10.948Z,11.35
2023-05-08T06:34:43.728Z,10.75
2023-05-08T06:37:16.595Z,12.10
2023-05-08T06:39:57.298Z,12.15
2023-05-08T06:42:37.053Z,12.77
2023-05-08T06:45:12.236Z,14.10
2023-05-08T06:47:45.585Z,12.05
2023-05-08T06:50:18.396Z,13.27
2023-05-08T06:52:51.257Z,13.75
2023-05-08T06:55:24.090Z,12.23
2023-05-08T06:57:57.154Z,12.73
2023-05-08T07:00:31.454Z,14.32
2023-05-08T07:03:04.491Z,12.90
2023-05-08T07:05:37.344Z,14.15
2023-05-08T07:08:10.102Z,14.23
2023-05-08T07:10:42.940Z,14.10
2023-05-08T07:13:19.901Z,12.88
2023-05-08T07:15:54.237Z,12.77
2023-05-08T07:18:27.104Z,13.35
2023-05-08T07:20:59.924Z,12.27
2023-05-08T07:23:32.880Z,15.15
2023-05-08T07:26:05.837Z,13.18
2023-05-08T07:28:38.691Z,14.05
2023-05-08T07:31:13.329Z,18.27
2023-05-08T07:33:46.736Z,13.27
2023-05-08T07:36:19.607Z,13.07
2023-05-08T07:38:52.399Z,14.60
2023-05-08T07:41:26.508Z,13.02
2023-05-08T07:43:59.507Z,14.98
2023-05-08T07:46:34.187Z,13.35
2023-05-08T07:51:40.178Z,12.52
2023-05-08T07:54:12.940Z,15.02
2023-05-08T07:56:46.037Z,17.25
2023-05-08T07:59:18.801Z,14.80
2023-05-08T08:01:53.293Z,14.38
2023-05-08T08:04:26.157Z,13.45
2023-05-08T08:06:59.090Z,13.05
2023-05-08T08:09:32.190Z,13.70
2023-05-08T08:12:05.068Z,13.15
2023-05-08T08:14:37.861Z,13.38
2023-05-08T08:17:12.129Z,13.57
2023-05-08T08:19:45.216Z,11.27
2023-05-08T08:22:17.999Z,13.45
2023-05-08T08:24:52.381Z,14.32
2023-05-08T08:27:27.068Z,12.93
2023-05-08T08:30:12.915Z,12.25
2023-05-08T08:32:50.983Z,12.85
2023-05-08T08:35:29.073Z,13.05
2023-05-08T08:38:02.463Z,10.25
2023-05-08T08:40:40.464Z,12.40
2023-05-08T08:43:13.324Z,10.82
2023-05-08T08:45:46.089Z,9.70
2023-05-08T08:48:21.260Z,12.27
2023-05-08T08:50:59.785Z,12.30
2023-05-08T08:53:38.376Z,10.93
2023-05-08T08:56:13.307Z,11.45
2023-05-08T08:58:52.845Z,10.70
2023-05-08T09:01:29.172Z,10.25
2023-05-08T09:04:03.836Z,10.48
2023-05-08T09:09:09.907Z,10.05
2023-05-08T09:11:44.667Z,9.38
2023-05-08T09:14:17.498Z,10.13
2023-05-08T09:16:50.284Z,9.63
2023-05-08T09:19:27.177Z,9.68
2023-05-08T09:22:02.030Z,8.07
2023-05-08T09:24:57.869Z,8.82
2023-05-08T09:27:31.939Z,7.05
2023-05-08T09:30:06.637Z,6.95
2023-05-08T09:32:41.545Z,7.60
2023-05-08T09:35:15.940Z,9.05
2023-05-08T09:37:49.130Z,9.82
2023-05-08T09:40:23.516Z,7.88
2023-05-08T09:42:56.289Z,10.90
2023-05-08T09:45:30.930Z,8.95
2023-05-08T09:48:03.992Z,8.73
2023-05-08T09:50:38.299Z,9.57
2023-05-08T09:53:11.325Z,9.63
2023-05-08T09:55:47.789Z,8.77
2023-05-08T09:58:22.424Z,8.88
2023-05-08T10:00:55.620Z,8.13
2023-05-08T10:03:46.978Z,7.45
2023-05-08T10:06:21.346Z,7.20
2023-05-08T10:09:08.001Z,7.03
2023-05-08T10:11:41.610Z,6.97
2023-05-08T10:14:14.521Z,4.88
2023-05-08T10:16:49.680Z,6.03
2023-05-08T10:19:24.131Z,5.68
2023-05-08T10:22:01.988Z,3.25
2023-05-08T10:24:35.485Z,3.42
2023-05-08T10:27:13.467Z,4.35
2023-05-08T10:29:53.542Z,4.47
2023-05-08T10:32:27.426Z,4.63
2023-05-08T10:35:01.257Z,5.10
2023-05-08T10:37:37.700Z,4.53
2023-05-08T10:40:12.165Z,3.33
2023-05-08T10:42:46.186Z,3.25
2023-05-08T10:45:19.567Z,3.35
2023-05-08T10:48:00.515Z,2.65
2023-05-08T10:50:46.454Z,3.00
2023-05-08T10:53:26.816Z,5.50
2023-05-08T10:56:00.539Z,2.30
2023-05-08T10:58:35.664Z,2.67
2023-05-08T11:01:19.567Z,2.10
2023-05-08T11:03:52.923Z,1.88
2023-05-08T11:06:46.578Z,2.08
2023-05-08T11:09:29.361Z,1.92
2023-05-08T11:12:09.182Z,2.25
2023-05-08T11:14:43.821Z,1.17
2023-05-08T11:17:24.418Z,2.63
2023-05-08T11:19:59.339Z,2.78
2023-05-08T11:22:33.129Z,1.95
2023-05-08T11:25:10.560Z,2.05
2023-05-08T11:28:13.807Z,2.70
2023-05-08T11:30:46.863Z,2.33
2023-05-08T11:33:20.828Z,2.05
2023-05-08T11:35:56.263Z,3.35
2023-05-08T11:38:35.640Z,2.10
2023-05-08T11:41:11.396Z,2.90
2023-05-08T11:44:08.053Z,2.40
2023-05-08T11:46:50.634Z,2.42
2023-05-08T11:49:28.982Z,3.58
2023-05-08T11:52:05.809Z,1.40
2023-05-08T11:54:38.662Z,1.60
2023-05-08T11:57:12.816Z,2.03
2023-05-08T11:59:45.625Z,2.17
2023-05-08T12:02:18.531Z,2.13
2023-05-08T12:04:51.552Z,3.95
2023-05-08T12:07:24.408Z,3.15
2023-05-08T12:09:57.253Z,3.85
2023-05-08T12:12:41.204Z,3.08
2023-05-08T12:15:16.210Z,2.17
2023-05-08T12:17:49.173Z,2.28
2023-05-08T12:20:22.170Z,3.83
2023-05-08T12:22:54.954Z,6.03
2023-05-08T12:25:27.955Z,3.58
2023-05-08T12:28:02.174Z,3.83
2023-05-08T12:30:35.115Z,2.13
2023-05-08T12:33:08.333Z,1.30
2023-05-08T12:35:41.579Z,2.20
2023-05-08T12:38:14.399Z,3.05
2023-05-08T12:40:49.053Z,1.50
2023-05-08T12:43:32.140Z,2.90
2023-05-08T12:46:05.773Z,1.83
2023-05-08T12:48:38.614Z,2.03
2023-05-08T12:51:11.725Z,2.35
2023-05-08T12:53:47.137Z,2.65
2023-05-08T12:56:23.139Z,2.70
2023-05-08T12:59:00.064Z,3.83
2023-05-08T13:01:33.065Z,1.45
2023-05-08T13:04:08.707Z,2.90
2023-05-08T13:06:41.508Z,2.33
2023-05-08T13:09:19.161Z,3.17
2023-05-08T13:11:51.993Z,1.73
2023-05-08T13:14:26.080Z,3.40
2023-05-08T13:19:32.675Z,2.80
2023-05-08T13:22:05.483Z,2.40
2023-05-08T13:24:38.293Z,4.88
2023-05-08T13:27:11.024Z,2.13
2023-05-08T13:29:45.182Z,3.70
2023-05-08T13:34:52.308Z,3.67
2023-05-08T13:37:28.070Z,2.13
2023-05-08T13:40:00.960Z,2.65
2023-05-08T13:42:33.780Z,2.92
2023-05-08T13:45:10.564Z,6.10
2023-05-08T13:47:44.199Z,2.22
2023-05-08T13:50:18.309Z,2.22
2023-05-08T13:52:54.485Z,2.55
2023-05-08T13:55:27.843Z,5.13
2023-05-08T13:58:00.644Z,3.05
2023-05-08T14:00:35.792Z,2.40
2023-05-08T14:03:08.845Z,2.13
2023-05-08T14:05:41.818Z,4.97
2023-05-08T14:08:14.602Z,3.03
2023-05-08T14:10:47.389Z,3.28
2023-05-08T14:13:20.362Z,2.67
2023-05-08T14:15:54.768Z,2.60
2023-05-08T14:18:27.538Z,2.53
2023-05-08T14:21:00.527Z,1.63
2023-05-08T14:23:35.018Z,3.03
2023-05-08T14:26:07.812Z,1.98
2023-05-08T14:28:40.600Z,2.22
2023-05-08T14:31:14.930Z,1.80
2023-05-08T14:33:47.770Z,2.33
2023-05-08T14:36:20.755Z,2.33
2023-05-08T14:38:54.664Z,3.65
2023-05-08T14:41:29.016Z,2.10
2023-05-08T14:44:01.850Z,3.17
2023-05-08T14:46:36.186Z,2.92
2023-05-08T14:51:41.701Z,2.17
2023-05-08T14:54:15.038Z,4.05
2023-05-08T14:56:47.977Z,3.42
2023-05-08T14:59:21.047Z,4.72
2023-05-08T15:01:55.320Z,5.53
2023-05-08T15:04:28.224Z,3.83
2023-05-08T15:07:01.016Z,5.13
2023-05-08T15:09:33.847Z,3.90
2023-05-08T15:12:07.158Z,3.08
2023-05-08T15:14:39.903Z,4.50
2023-05-08T15:17:14.064Z,5.82
2023-05-08T15:19:47.015Z,6.10
2023-05-08T15:22:19.862Z,6.43
2023-05-08T15:24:53.882Z,6.60
2023-05-08T15:27:27.117Z,7.07
2023-05-08T15:29:59.943Z,7.93
2023-05-08T15:32:34.840Z,7.18
2023-05-08T15:35:08.327Z,6.47
2023-05-08T15:37:41.261Z,7.40
2023-05-08T15:40:14.618Z,7.65
2023-05-08T15:42:47.582Z,7.30
2023-05-08T15:45:20.638Z,7.07
2023-05-08T15:47:54.934Z,6.20
2023-05-08T15:53:00.388Z,6.30
2023-05-08T15:55:33.173Z,5.80
2023-05-08T15:58:06.006Z,6.68
2023-05-08T16:00:44.766Z,6.38
2023-05-08T16:03:20.048Z,5.65
2023-05-08T16:05:53.131Z,6.53
2023-05-08T16:08:26.102Z,8.27
2023-05-08T16:10:58.925Z,5.75
2023-05-08T16:13:31.766Z,6.93
2023-05-08T16:16:05.974Z,6.40
2023-05-08T16:18:40.251Z,7.85
2023-05-08T16:23:46.013Z,5.35
2023-05-08T16:26:20.156Z,7.68
2023-05-08T16:31:25.822Z,6.43
2023-05-08T16:33:59.979Z,6.07
2023-05-08T16:36:32.912Z,5.25
2023-05-08T16:39:05.842Z,6.05
2023-05-08T16:41:38.698Z,5.90
2023-05-08T16:44:12.486Z,5.07
2023-05-08T16:46:45.355Z,4.22
2023-05-08T16:49:20.232Z,3.57
2023-05-08T16:51:53.026Z,4.63
2023-05-08T16:54:25.853Z,4.35
2023-05-08T16:56:58.730Z,4.20
2023-05-08T16:59:32.125Z,7.38
2023-05-08T17:02:05.034Z,3.97
2023-05-08T17:04:39.384Z,4.90
2023-05-08T17:07:12.209Z,4.60
2023-05-08T17:09:45.957Z,3.95
2023-05-08T17:12:18.766Z,3.80
2023-05-08T17:14:51.621Z,4.40
2023-05-08T17:17:24.426Z,4.32
2023-05-08T17:19:58.717Z,4.75
2023-05-08T17:22:31.564Z,3.90
2023-05-08T17:25:05.827Z,3.60
2023-05-08T17:30:12.537Z,6.80
2023-05-08T17:32:46.472Z,5.65
2023-05-08T17:35:21.366Z,4.72
2023-05-08T17:37:54.244Z,4.40
2023-05-08T17:40:28.680Z,4.82
2023-05-08T17:43:01.670Z,4.72
2023-05-08T17:45:34.476Z,7.35
2023-05-08T17:48:07.720Z,6.18
2023-05-08T17:50:43.381Z,5.45
2023-05-08T17:53:16.287Z,4.53
2023-05-08T17:55:49.382Z,8.15
2023-05-08T17:58:22.259Z,5.60
2023-05-08T18:00:55.916Z,5.65
2023-05-08T18:03:28.796Z,7.13
2023-05-08T18:06:02.957Z,4.30
2023-05-08T18:08:36.277Z,4.60
2023-05-08T18:11:16.325Z,3.22
2023-05-08T18:13:49.640Z,3.92
2023-05-08T18:16:23.396Z,4.03
2023-05-08T18:18:56.320Z,4.50
2023-05-08T18:21:31.516Z,3.75
2023-05-08T18:24:04.719Z,3.92
2023-05-08T18:26:37.965Z,3.22
2023-05-08T18:29:11.023Z,3.13
2023-05-08T18:31:43.923Z,3.63
2023-05-08T18:34:16.772Z,5.85
2023-05-08T18:36:50.973Z,3.28
2023-05-08T18:39:23.842Z,4.07
2023-05-08T18:41:56.744Z,4.88
2023-05-08T18:44:29.733Z,6.13
2023-05-08T18:47:02.643Z,3.50
2023-05-08T18:49:35.600Z,2.40
2023-05-08T18:52:09.833Z,3.05
2023-05-08T18:57:15.432Z,3.17
2023-05-08T18:59:48.273Z,2.85
2023-05-08T19:02:21.100Z,3.13
2023-05-08T19:04:53.935Z,2.40
2023-05-08T19:07:28.159Z,3.45
2023-05-08T19:10:00.978Z,3.90
2023-05-08T19:12:33.965Z,4.38
2023-05-08T19:15:08.761Z,3.92
2023-05-08T19:17:41.664Z,3.42
2023-05-08T19:20:15.326Z,6.57
2023-05-08T19:22:49.923Z,4.57
2023-05-08T19:25:22.988Z,4.25
2023-05-08T19:27:56.472Z,5.45
2023-05-08T19:30:29.273Z,4.07
2023-05-08T19:33:02.648Z,4.43
2023-05-08T19:35:35.557Z,4.60
2023-05-08T19:38:09.778Z,4.65
2023-05-08T19:40:55.711Z,4.70
2023-05-08T19:43:30.684Z,4.70
2023-05-08T19:46:03.564Z,5.90
2023-05-08T19:48:36.551Z,4.03
2023-05-08T19:51:11.426Z,5.10
2023-05-08T19:53:45.600Z,7.90
2023-05-08T19:56:18.425Z,5.45
2023-05-08T19:58:51.294Z,5.20
2023-05-08T20:01:24.269Z,4.88
2023-05-08T20:03:59.702Z,5.28
2023-05-08T20:06:33.473Z,7.68
2023-05-08T20:09:07.694Z,5.68
2023-05-08T20:11:40.574Z,6.53
2023-05-08T20:14:13.709Z,5.43
2023-05-08T20:16:46.825Z,8.68
2023-05-08T20:19:19.932Z,4.68
2023-05-08T20:21:52.760Z,4.35
2023-05-08T20:24:26.955Z,6.35
2023-05-08T20:27:00.002Z,4.82
2023-05-08T20:29:32.868Z,5.22
2023-05-08T20:32:07.443Z,4.00
2023-05-08T20:34:40.461Z,5.07
2023-05-08T20:37:16.010Z,4.20
2023-05-08T20:39:50.278Z,5.18
2023-05-08T20:42:23.394Z,4.85
2023-05-08T20:44:56.195Z,5.28
2023-05-08T20:47:29.385Z,6.15
2023-05-08T20:50:02.955Z,5.18
2023-05-08T20:52:38.058Z,6.65
2023-05-08T20:55:13.343Z,6.05
2023-05-08T21:00:19.644Z,7.03
2023-05-08T21:02:52.534Z,5.25
2023-05-08T21:05:25.563Z,6.72
2023-05-08T21:08:00.094Z,4.60
2023-05-08T21:13:07.379Z,5.32
2023-05-08T21:15:40.222Z,5.90
2023-05-08T21:18:13.385Z,5.32
2023-05-08T21:20:49.837Z,9.18
2023-05-08T21:23:22.914Z,6.70
2023-05-08T21:25:57.074Z,5.68
2023-05-08T21:28:29.867Z,6.95
2023-05-08T21:31:02.723Z,6.28
2023-05-08T21:33:35.625Z,6.72
2023-05-08T21:36:09.022Z,7.13
2023-05-08T21:38:42.556Z,7.07
2023-05-08T21:41:16.813Z,6.38
2023-05-08T21:43:50.012Z,5.15
2023-05-08T21:46:22.975Z,6.18
2023-05-08T21:48:55.894Z,5.22
2023-05-08T21:51:28.695Z,5.43
2023-05-08T21:54:01.616Z,5.60
2023-05-08T21:56:35.942Z,5.07
2023-05-08T21:59:08.804Z,7.25
2023-05-08T22:01:42.233Z,6.72
2023-05-08T22:04:15.154Z,7.57
2023-05-08T22:06:47.941Z,7.53
2023-05-08T22:09:20.753Z,6.60
2023-05-08T22:11:54.930Z,5.90
2023-05-08T22:14:27.769Z,5.93
2023-05-08T22:17:00.929Z,6.78
2023-05-08T22:19:33.738Z,5.38
2023-05-08T22:22:06.660Z,8.63
2023-05-08T22:24:39.496Z,5.82
2023-05-08T22:27:13.652Z,6.25
2023-05-08T22:29:46.816Z,8.20
2023-05-08T22:32:19.611Z,12.68
2023-05-08T22:34:52.453Z,9.95
2023-05-08T22:37:26.414Z,10.85
2023-05-08T22:39:59.478Z,8.32
2023-05-08T22:42:33.703Z,6.53
2023-05-08T22:45:07.614Z,6.85
2023-05-08T22:47:41.299Z,6.38
2023-05-08T22:50:16.921Z,7.40
2023-05-08T22:52:49.715Z,6.40
2023-05-08T22:55:22.803Z,8.13
2023-05-08T22:57:56.960Z,6.57
2023-05-08T23:00:29.875Z,6.93
2023-05-08T23:03:02.812Z,6.72
2023-05-08T23:05:35.918Z,6.82
2023-05-08T23:08:08.713Z,6.53
2023-05-08T23:10:41.956Z,7.90
2023-05-08T23:13:16.361Z,8.68
2023-05-08T23:15:49.207Z,8.00
2023-05-08T23:18:22.339Z,6.60
2023-05-08T23:20:55.164Z,6.80
2023-05-08T23:23:27.965Z,7.80
2023-05-08T23:26:04.633Z,7.10
2023-05-08T23:28:38.857Z,8.02
2023-05-08T23:31:11.737Z,8.43
2023-05-08T23:33:44.636Z,7.97
2023-05-08T23:36:17.983Z,7.03
2023-05-08T23:38:50.846Z,6.45
2023-05-08T23:41:24.048Z,7.38
2023-05-08T23:43:58.212Z,6.63
2023-05-08T23:46:31.472Z,7.45
2023-05-08T23:49:05.268Z,7.53
2023-05-08T23:51:38.226Z,10.93
2023-05-08T23:54:11.025Z,9.48
2023-05-08T23:56:44.491Z,8.07
2023-05-08T23:59:18.687Z,9.05
